createdAt,value
2023-01-10T00:01:32.296Z,100263.75
2023-01-10T00:03:33.858Z,100265.88
2023-01-10T00:05:36.322Z,100272.06
2023-01-10T00:07:37.922Z,100265.31
2023-01-10T00:09:39.508Z,100270.44
2023-01-10T00:11:41.268Z,100279.84
2023-01-10T00:13:44.269Z,100277.66
2023-01-10T00:15:46.074Z,100276.28
2023-01-10T00:17:47.776Z,100279.81
2023-01-10T00:19:49.428Z,100281.16
2023-01-10T00:21:51.161Z,100286.28
2023-01-10T00:23:52.878Z,100287.31
2023-01-10T00:25:54.549Z,100281.41
2023-01-10T00:27:56.637Z,100286.81
2023-01-10T00:29:59.622Z,100287.31
2023-01-10T00:32:01.569Z,100289.22
2023-01-10T00:34:03.227Z,100288.69
2023-01-10T00:36:06.947Z,100296.22
2023-01-10T00:38:08.616Z,100319.91
2023-01-10T00:40:12.114Z,100313.75
2023-01-10T00:42:13.767Z,100320.78
2023-01-10T00:44:15.403Z,100324.00
2023-01-10T00:46:18.384Z,100331.47
2023-01-10T00:48:20.523Z,100335.81
2023-01-10T00:50:22.163Z,100344.72
2023-01-10T00:52:23.838Z,100346.38
2023-01-10T00:54:26.028Z,100351.81
2023-01-10T00:56:27.659Z,100353.91
2023-01-10T00:58:29.296Z,100365.22
2023-01-10T01:00:31.027Z,100383.00
2023-01-10T01:02:34.273Z,100384.09
2023-01-10T01:04:35.999Z,100386.31
2023-01-10T01:06:37.701Z,100398.41
2023-01-10T01:08:39.535Z,100402.50
2023-01-10T01:10:41.250Z,100404.66
2023-01-10T01:12:42.933Z,100404.94
2023-01-10T01:14:45.687Z,100410.03
2023-01-10T01:16:47.438Z,100406.56
2023-01-10T01:18:50.680Z,100412.44
2023-01-10T01:20:53.712Z,100427.75
2023-01-10T01:22:55.355Z,100437.75
2023-01-10T01:24:57.010Z,100442.38
2023-01-10T01:26:58.705Z,100442.09
2023-01-10T01:29:00.366Z,100448.84
2023-01-10T01:31:07.342Z,100462.63
2023-01-10T01:33:09.200Z,100470.94
2023-01-10T01:35:15.243Z,100477.66
2023-01-10T01:37:16.907Z,100489.81
2023-01-10T01:39:18.518Z,100497.34
2023-01-10T01:41:20.281Z,100504.06
2023-01-10T01:43:26.816Z,100512.75
2023-01-10T01:45:39.466Z,100524.31
2023-01-10T01:47:44.890Z,100527.00
2023-01-10T01:49:46.766Z,100527.00
2023-01-10T01:51:56.570Z,100533.72
2023-01-10T01:54:01.484Z,100535.09
2023-01-10T01:56:08.003Z,100552.59
2023-01-10T01:58:14.680Z,100544.00
2023-01-10T02:00:16.787Z,100565.56
2023-01-10T02:02:22.034Z,100578.22
2023-01-10T02:04:28.918Z,100576.84
2023-01-10T02:06:30.761Z,100579.81
2023-01-10T02:08:34.117Z,100582.81
2023-01-10T02:10:41.907Z,100588.47
2023-01-10T02:12:45.678Z,100591.97
2023-01-10T02:14:50.312Z,100600.31
2023-01-10T02:16:54.628Z,100593.84
2023-01-10T02:18:56.791Z,100602.19
2023-01-10T02:21:16.793Z,100610.00
2023-01-10T02:23:51.002Z,100615.66
2023-01-10T02:26:30.640Z,100615.91
2023-01-10T02:28:54.602Z,100621.31
2023-01-10T02:31:15.680Z,100625.59
2023-01-10T02:33:25.384Z,100622.66
2023-01-10T02:35:47.297Z,100626.16
2023-01-10T02:38:00.095Z,100624.25
2023-01-10T02:40:07.860Z,100622.91
2023-01-10T02:42:14.967Z,100627.50
2023-01-10T02:44:21.771Z,100630.75
2023-01-10T02:46:28.347Z,100638.00
2023-01-10T02:48:31.398Z,100635.31
2023-01-10T02:50:55.596Z,100635.31
2023-01-10T02:53:00.447Z,100637.22
2023-01-10T02:55:03.552Z,100635.84
2023-01-10T02:57:29.108Z,100640.16
2023-01-10T03:00:15.118Z,100644.22
2023-01-10T03:02:28.174Z,100646.63
2023-01-10T03:04:49.015Z,100653.09
2023-01-10T03:06:58.327Z,100657.41
2023-01-10T03:09:07.460Z,100660.69
2023-01-10T03:11:10.900Z,100672.25
2023-01-10T03:13:19.901Z,100667.44
2023-01-10T03:15:23.308Z,100670.38
2023-01-10T03:17:28.113Z,100671.22
2023-01-10T03:19:32.932Z,100674.44
2023-01-10T03:21:43.164Z,100681.97
2023-01-10T03:23:47.495Z,100694.38
2023-01-10T03:25:52.039Z,100697.34
2023-01-10T03:28:00.456Z,100705.69
2023-01-10T03:30:08.123Z,100700.31
2023-01-10T03:32:11.830Z,100704.38
2023-01-10T03:34:14.506Z,100698.69
2023-01-10T03:36:20.935Z,100706.50
2023-01-10T03:38:29.812Z,100710.56
2023-01-10T03:40:36.476Z,100710.56
2023-01-10T03:42:48.169Z,100714.31
2023-01-10T03:44:59.287Z,100724.28
2023-01-10T03:47:08.040Z,100724.03
2023-01-10T03:49:11.475Z,100730.25
2023-01-10T03:51:15.373Z,100734.00
2023-01-10T03:53:17.303Z,100744.25
2023-01-10T03:55:22.926Z,100738.34
2023-01-10T03:57:24.979Z,100748.56
2023-01-10T03:59:28.335Z,100751.25
2023-01-10T04:01:30.091Z,100751.78
2023-01-10T04:03:34.602Z,100755.28
2023-01-10T04:05:36.235Z,100756.38
2023-01-10T04:07:38.019Z,100761.75
2023-01-10T04:09:39.708Z,100767.41
2023-01-10T04:11:42.686Z,100762.56
2023-01-10T04:13:44.316Z,100770.38
2023-01-10T04:15:45.995Z,100777.09
2023-01-10T04:17:48.183Z,100785.72
2023-01-10T04:19:49.778Z,100779.25
2023-01-10T04:21:51.886Z,100786.28
2023-01-10T04:23:53.513Z,100787.88
2023-01-10T04:25:55.154Z,100784.66
2023-01-10T04:27:58.328Z,100787.34
2023-01-10T04:29:59.925Z,100795.97
2023-01-10T04:32:01.588Z,100788.41
2023-01-10T04:34:03.237Z,100792.47
2023-01-10T04:36:05.169Z,100792.72
2023-01-10T04:38:06.774Z,100801.09
2023-01-10T04:40:09.664Z,100816.44
2023-01-10T04:42:11.449Z,100818.03
2023-01-10T04:44:14.461Z,100819.66
2023-01-10T04:46:16.179Z,100819.13
2023-01-10T04:48:17.859Z,100821.00
2023-01-10T04:50:19.530Z,100814.00
2023-01-10T04:52:21.245Z,100816.69
2023-01-10T04:54:23.255Z,100822.63
2023-01-10T04:56:25.383Z,100826.69
2023-01-10T04:58:26.995Z,100840.41
2023-01-10T05:00:29.998Z,100840.94
2023-01-10T05:02:31.643Z,100838.53
2023-01-10T05:04:33.336Z,100842.53
2023-01-10T05:06:34.947Z,100846.59
2023-01-10T05:08:36.539Z,100848.19
2023-01-10T05:10:38.285Z,100851.94
2023-01-10T05:12:40.189Z,100858.97
2023-01-10T05:14:41.837Z,100854.09
2023-01-10T05:16:45.119Z,100854.63
2023-01-10T05:18:47.228Z,100863.78
2023-01-10T05:20:49.635Z,100862.72
2023-01-10T05:22:51.551Z,100868.66
2023-01-10T05:24:54.645Z,100878.63
2023-01-10T05:26:56.519Z,100875.34
2023-01-10T05:28:58.338Z,100879.44
2023-01-10T05:31:00.028Z,100889.66
2023-01-10T05:33:05.467Z,100886.19
2023-01-10T05:35:07.888Z,100886.44
2023-01-10T05:37:09.567Z,100895.84
2023-01-10T05:39:11.327Z,100893.72
2023-01-10T05:41:13.257Z,100892.69
2023-01-10T05:43:14.867Z,100894.53
2023-01-10T05:45:19.379Z,100895.88
2023-01-10T05:47:21.509Z,100902.91
2023-01-10T05:49:24.691Z,100905.88
2023-01-10T05:51:26.431Z,100899.94
2023-01-10T05:53:28.153Z,100919.34
2023-01-10T05:55:29.783Z,100913.94
2023-01-10T05:57:31.436Z,100918.22
2023-01-10T05:59:33.069Z,100916.63
2023-01-10T06:01:34.849Z,100921.22
2023-01-10T06:03:36.771Z,100915.56
2023-01-10T06:05:39.880Z,100930.13
2023-01-10T06:07:41.495Z,100936.84
2023-01-10T06:09:43.222Z,100940.91
2023-01-10T06:11:44.890Z,100943.88
2023-01-10T06:13:46.534Z,100948.72
2023-01-10T06:15:48.504Z,100955.47
2023-01-10T06:17:50.209Z,100964.63
2023-01-10T06:19:51.879Z,100964.63
2023-01-10T06:21:57.209Z,100969.72
2023-01-10T06:23:59.000Z,100972.41
2023-01-10T06:26:00.625Z,100979.94
2023-01-10T06:28:02.603Z,100987.75
2023-01-10T06:30:05.180Z,100992.34
2023-01-10T06:32:07.203Z,100991.78
2023-01-10T06:34:08.939Z,100993.19
2023-01-10T06:36:11.973Z,100990.72
2023-01-10T06:38:15.173Z,100993.41
2023-01-10T06:40:17.677Z,101000.97
2023-01-10T06:42:19.328Z,101003.41
2023-01-10T06:44:21.027Z,101008.78
2023-01-10T06:46:22.897Z,101010.16
2023-01-10T06:48:24.625Z,101011.25
2023-01-10T06:50:28.958Z,101021.50
2023-01-10T06:52:31.167Z,101021.75
2023-01-10T06:54:34.265Z,101035.50
2023-01-10T06:56:35.917Z,101043.31
2023-01-10T06:58:37.651Z,101049.19
2023-01-10T07:00:39.500Z,101052.44
2023-01-10T07:02:41.117Z,101054.59
2023-01-10T07:04:42.780Z,101058.13
2023-01-10T07:06:44.619Z,101051.38
2023-01-10T07:08:46.835Z,101044.59
2023-01-10T07:10:49.893Z,101032.47
2023-01-10T07:12:51.591Z,101031.91
2023-01-10T07:14:53.241Z,101040.28
2023-01-10T07:16:54.858Z,101047.53
2023-01-10T07:18:56.555Z,101053.97
2023-01-10T07:20:58.290Z,101066.88
2023-01-10T07:23:00.701Z,101075.19
2023-01-10T07:25:02.308Z,101070.63
2023-01-10T07:27:05.419Z,101068.44
2023-01-10T07:29:07.157Z,101075.72
2023-01-10T07:31:10.262Z,101082.44
2023-01-10T07:33:11.929Z,101099.13
2023-01-10T07:35:13.635Z,101103.47
2023-01-10T07:37:15.358Z,101107.00
2023-01-10T07:39:16.957Z,101109.41
2023-01-10T07:41:19.112Z,101114.81
2023-01-10T07:43:22.236Z,101105.66
2023-01-10T07:45:23.957Z,101114.53
2023-01-10T07:47:25.658Z,101112.09
2023-01-10T07:49:27.393Z,101118.28
2023-01-10T07:51:28.983Z,101109.34
2023-01-10T07:53:31.021Z,101111.81
2023-01-10T07:55:32.760Z,101119.63
2023-01-10T07:57:34.548Z,101125.00
2023-01-10T07:59:37.802Z,101124.22
2023-01-10T08:01:39.497Z,101125.81
2023-01-10T08:03:41.458Z,101131.47
2023-01-10T08:05:43.401Z,101133.63
2023-01-10T08:07:45.123Z,101143.59
2023-01-10T08:09:46.824Z,101137.13
2023-01-10T08:11:48.487Z,101146.28
2023-01-10T08:13:50.659Z,101145.75
2023-01-10T08:15:53.740Z,101149.81
2023-01-10T08:17:55.479Z,101143.06
2023-01-10T08:19:57.174Z,101139.81
2023-01-10T08:21:58.833Z,101140.03
2023-01-10T08:24:01.128Z,101145.19
2023-01-10T08:26:02.863Z,101153.81
2023-01-10T08:28:04.653Z,101152.72
2023-01-10T08:30:07.623Z,101145.97
2023-01-10T08:32:11.479Z,101161.56
2023-01-10T08:34:13.779Z,101165.31
2023-01-10T08:36:16.206Z,101166.88
2023-01-10T08:38:17.954Z,101168.00
2023-01-10T08:40:19.619Z,101165.88
2023-01-10T08:42:21.714Z,101167.25
2023-01-10T08:44:23.758Z,101174.25
2023-01-10T08:46:25.652Z,101179.06
2023-01-10T08:48:29.451Z,101181.22
2023-01-10T08:50:31.724Z,101182.63
2023-01-10T08:52:33.432Z,101187.75
2023-01-10T08:54:35.493Z,101187.22
2023-01-10T08:56:37.237Z,101192.91
2023-01-10T08:58:39.502Z,101193.13
2023-01-10T09:00:41.440Z,101191.25
2023-01-10T09:02:43.710Z,101190.44
2023-01-10T09:04:46.878Z,101198.47
2023-01-10T09:06:48.521Z,101193.38
2023-01-10T09:08:50.407Z,101192.72
2023-01-10T09:10:52.132Z,101185.72
2023-01-10T09:12:53.735Z,101198.59
2023-01-10T09:14:55.447Z,101195.41
2023-01-10T09:16:59.102Z,101197.56
2023-01-10T09:19:00.858Z,101204.56
2023-01-10T09:21:04.091Z,101209.19
2023-01-10T09:23:06.917Z,101210.78
2023-01-10T09:25:08.634Z,101215.34
2023-01-10T09:27:10.660Z,101220.81
2023-01-10T09:29:12.289Z,101226.84
2023-01-10T09:31:13.942Z,101231.94
2023-01-10T09:33:16.937Z,101228.97
2023-01-10T09:35:18.990Z,101239.44
2023-01-10T09:37:23.609Z,101229.75
2023-01-10T09:39:25.460Z,101230.88
2023-01-10T09:42:04.453Z,101240.31
2023-01-10T09:44:17.920Z,101251.63
2023-01-10T09:46:27.761Z,101247.34
2023-01-10T09:48:40.319Z,101249.25
2023-01-10T09:50:55.676Z,101252.72
2023-01-10T09:53:05.689Z,101257.81
2023-01-10T09:55:19.126Z,101254.88
2023-01-10T09:57:22.704Z,101256.19
2023-01-10T09:59:26.418Z,101263.22
2023-01-10T10:01:33.376Z,101267.53
2023-01-10T10:03:42.275Z,101268.88
2023-01-10T10:05:45.642Z,101268.22
2023-01-10T10:07:53.410Z,101266.66
2023-01-10T10:09:56.463Z,101257.63
2023-01-10T10:12:19.502Z,101255.06
2023-01-10T10:14:33.826Z,101255.63
2023-01-10T10:16:44.348Z,101253.13
2023-01-10T10:18:57.893Z,101249.78
2023-01-10T10:21:15.347Z,101261.84
2023-01-10T10:23:44.507Z,101259.56
2023-01-10T10:26:02.630Z,101250.22
2023-01-10T10:28:19.030Z,101249.44
2023-01-10T10:30:32.072Z,101247.06
2023-01-10T10:33:06.785Z,101239.94
2023-01-10T10:35:15.386Z,101247.56
2023-01-10T10:37:22.146Z,101248.47
2023-01-10T10:39:31.864Z,101246.34
2023-01-10T10:41:38.329Z,101259.25
2023-01-10T10:43:46.328Z,101255.91
2023-01-10T10:45:52.490Z,101253.75
2023-01-10T10:47:59.838Z,101254.34
2023-01-10T10:50:11.650Z,101255.41
2023-01-10T10:52:22.341Z,101246.53
2023-01-10T10:54:24.024Z,101251.09
2023-01-10T10:56:27.387Z,101246.28
2023-01-10T10:58:31.462Z,101244.22
2023-01-10T11:00:36.370Z,101241.84
2023-01-10T11:02:43.441Z,101244.03
2023-01-10T11:04:48.497Z,101243.16
2023-01-10T11:06:50.841Z,101246.41
2023-01-10T11:08:56.081Z,101241.59
2023-01-10T11:11:02.287Z,101245.31
2023-01-10T11:13:13.147Z,101239.41
2023-01-10T11:15:37.432Z,101231.88
2023-01-10T11:17:39.237Z,101240.19
2023-01-10T11:20:00.859Z,101235.28
2023-01-10T11:22:06.055Z,101226.72
2023-01-10T11:24:21.159Z,101231.31
2023-01-10T11:26:26.520Z,101227.00
2023-01-10T11:28:32.625Z,101232.13
2023-01-10T11:30:36.159Z,101228.06
2023-01-10T11:32:40.362Z,101233.38
2023-01-10T11:34:47.368Z,101237.72
2023-01-10T11:36:53.879Z,101238.75
2023-01-10T11:39:00.935Z,101239.56
2023-01-10T11:41:21.171Z,101238.19
2023-01-10T11:43:42.013Z,101247.41
2023-01-10T11:45:45.687Z,101248.00
2023-01-10T11:48:02.024Z,101251.75
2023-01-10T11:50:20.179Z,101245.88
2023-01-10T11:52:27.043Z,101241.03
2023-01-10T11:54:33.561Z,101242.31
2023-01-10T11:56:48.705Z,101241.84
2023-01-10T11:58:55.731Z,101234.88
2023-01-10T12:00:59.195Z,101228.25
2023-01-10T12:03:01.568Z,101225.66
2023-01-10T12:05:07.343Z,101226.25
2023-01-10T12:07:12.010Z,101227.84
2023-01-10T12:09:37.528Z,101224.84
2023-01-10T12:11:39.261Z,101219.19
2023-01-10T12:13:46.903Z,101222.94
2023-01-10T12:15:49.128Z,101218.06
2023-01-10T12:17:55.413Z,101225.28
2023-01-10T12:20:01.967Z,101213.44
2023-01-10T12:22:09.847Z,101217.78
2023-01-10T12:24:16.813Z,101217.50
2023-01-10T12:26:19.182Z,101215.13
2023-01-10T12:28:24.224Z,101216.19
2023-01-10T12:30:34.807Z,101203.13
2023-01-10T12:32:44.693Z,101217.59
2023-01-10T12:34:58.837Z,101209.00
2023-01-10T12:37:08.921Z,101212.81
2023-01-10T12:39:15.074Z,101215.22
2023-01-10T12:41:22.758Z,101208.47
2023-01-10T12:43:29.932Z,101213.09
2023-01-10T12:45:42.692Z,101204.50
2023-01-10T12:48:02.300Z,101209.41
2023-01-10T12:50:20.284Z,101213.72
2023-01-10T12:52:37.440Z,101209.63
2023-01-10T12:54:39.150Z,101205.81
2023-01-10T12:56:41.515Z,101207.22
2023-01-10T12:58:47.910Z,101202.94
2023-01-10T13:00:55.276Z,101211.88
2023-01-10T13:05:35.829Z,101205.94
2023-01-10T13:07:38.392Z,101205.59
2023-01-10T13:09:42.432Z,101201.34
2023-01-10T13:11:53.326Z,101203.78
2023-01-10T13:14:00.074Z,101198.13
2023-01-10T13:16:21.283Z,101204.81
2023-01-10T13:18:26.317Z,101205.06
2023-01-10T13:20:40.691Z,101204.56
2023-01-10T13:22:47.323Z,101205.41
2023-01-10T13:24:56.223Z,101212.44
2023-01-10T13:27:00.213Z,101209.75
2023-01-10T13:29:02.209Z,101209.75
2023-01-10T13:31:05.749Z,101204.63
2023-01-10T13:33:19.712Z,101199.47
2023-01-10T13:35:36.662Z,101209.41
2023-01-10T13:37:42.294Z,101207.56
2023-01-10T13:39:45.486Z,101199.47
2023-01-10T13:42:23.325Z,101204.09
2023-01-10T13:44:25.043Z,101197.84
2023-01-10T13:46:48.751Z,101206.56
2023-01-10T13:49:30.670Z,101203.63
2023-01-10T13:51:35.131Z,101209.00
2023-01-10T13:53:57.617Z,101207.66
2023-01-10T13:55:59.494Z,101202.56
2023-01-10T13:58:31.178Z,101204.69
2023-01-10T14:00:54.763Z,101205.47
2023-01-10T14:02:59.080Z,101202.50
2023-01-10T14:05:03.361Z,101200.88
2023-01-10T14:07:12.805Z,101203.06
2023-01-10T14:09:39.839Z,101205.53
2023-01-10T14:11:51.381Z,101198.22
2023-01-10T14:13:55.640Z,101196.09
2023-01-10T14:15:58.165Z,101187.97
2023-01-10T14:18:02.193Z,101182.22
2023-01-10T14:20:17.724Z,101179.63
2023-01-10T14:22:27.140Z,101177.16
2023-01-10T14:24:35.806Z,101158.03
2023-01-10T14:26:40.749Z,101168.03
2023-01-10T14:28:42.690Z,101152.09
2023-01-10T14:30:45.813Z,101149.41
2023-01-10T14:32:49.974Z,101151.56
2023-01-10T14:34:52.874Z,101145.09
2023-01-10T14:36:59.208Z,101149.09
2023-01-10T14:39:05.018Z,101140.44
2023-01-10T14:41:21.130Z,101139.56
2023-01-10T14:43:28.335Z,101132.03
2023-01-10T14:45:34.409Z,101139.88
2023-01-10T14:47:36.186Z,101140.13
2023-01-10T14:49:52.522Z,101138.50
2023-01-10T14:52:12.585Z,101136.19
2023-01-10T14:54:15.124Z,101130.25
2023-01-10T14:56:21.476Z,101134.06
2023-01-10T14:58:24.911Z,101125.47
2023-01-10T15:00:29.437Z,101116.00
2023-01-10T15:02:36.501Z,101124.91
2023-01-10T15:04:47.236Z,101123.50
2023-01-10T15:06:54.169Z,101118.19
2023-01-10T15:08:58.598Z,101117.94
2023-01-10T15:11:03.641Z,101118.72
2023-01-10T15:13:06.331Z,101113.91
2023-01-10T15:15:15.434Z,101112.28
2023-01-10T15:17:20.511Z,101109.56
2023-01-10T15:19:24.185Z,101118.19
2023-01-10T15:21:25.971Z,101107.13
2023-01-10T15:23:34.864Z,101115.47
2023-01-10T15:25:39.026Z,101102.50
2023-01-10T15:27:45.870Z,101109.81
2023-01-10T15:29:47.589Z,101112.72
2023-01-10T15:31:51.752Z,101108.97
2023-01-10T15:33:53.536Z,101114.63
2023-01-10T15:35:55.664Z,101105.94
2023-01-10T15:38:02.515Z,101105.38
2023-01-10T15:40:07.741Z,101108.13
2023-01-10T15:42:12.053Z,101101.13
2023-01-10T15:44:31.290Z,101099.50
2023-01-10T15:46:36.280Z,101097.59
2023-01-10T15:48:40.807Z,101098.72
2023-01-10T15:50:54.647Z,101090.69
2023-01-10T15:52:58.903Z,101080.94
2023-01-10T15:55:01.034Z,101081.75
2023-01-10T15:57:07.667Z,101071.75
2023-01-10T15:59:22.767Z,101070.13
2023-01-10T16:01:28.686Z,101067.41
2023-01-10T16:03:34.132Z,101067.44
2023-01-10T16:05:37.322Z,101069.88
2023-01-10T16:07:44.164Z,101062.09
2023-01-10T16:09:53.854Z,101057.50
2023-01-10T16:11:59.136Z,101066.94
2023-01-10T16:14:00.838Z,101058.81
2023-01-10T16:16:06.404Z,101058.28
2023-01-10T16:18:08.240Z,101045.91
2023-01-10T16:20:13.033Z,101059.41
2023-01-10T16:22:18.636Z,101052.38
2023-01-10T16:24:22.873Z,101043.78
2023-01-10T16:26:24.671Z,101042.69
2023-01-10T16:28:28.124Z,101039.16
2023-01-10T16:30:31.981Z,101041.25
2023-01-10T16:32:33.619Z,101035.28
2023-01-10T16:34:35.244Z,101039.09
2023-01-10T16:36:39.490Z,101045.28
2023-01-10T16:38:43.369Z,101034.78
2023-01-10T16:40:49.818Z,101037.72
2023-01-10T16:42:51.492Z,101037.47
2023-01-10T16:44:53.270Z,101033.16
2023-01-10T16:46:54.953Z,101036.91
2023-01-10T16:48:56.682Z,101031.25
2023-01-10T16:51:15.844Z,101035.34
2023-01-10T16:53:19.288Z,101036.13
2023-01-10T16:55:26.909Z,101029.63
2023-01-10T16:57:28.628Z,101028.00
2023-01-10T16:59:30.316Z,101016.66
2023-01-10T17:01:36.842Z,101024.19
2023-01-10T17:03:39.289Z,101024.72
2023-01-10T17:05:41.457Z,101019.59
2023-01-10T17:07:43.137Z,101025.47
2023-01-10T17:09:44.831Z,101015.22
2023-01-10T17:11:50.508Z,101011.44
2023-01-10T17:13:52.561Z,101008.19
2023-01-10T17:15:54.272Z,101010.34
2023-01-10T17:17:56.025Z,101013.28
2023-01-10T17:19:59.407Z,101005.50
2023-01-10T17:22:01.076Z,101010.66
2023-01-10T17:24:02.755Z,100999.63
2023-01-10T17:26:05.602Z,101000.69
2023-01-10T17:28:10.120Z,101002.25
2023-01-10T17:30:13.136Z,100998.22
2023-01-10T17:32:14.808Z,100995.28
2023-01-10T17:34:16.533Z,100990.19
2023-01-10T17:36:19.503Z,100984.25
2023-01-10T17:38:21.676Z,100981.50
2023-01-10T17:40:23.637Z,100983.69
2023-01-10T17:42:25.893Z,100985.03
2023-01-10T17:44:30.265Z,100986.94
2023-01-10T17:46:32.442Z,100986.38
2023-01-10T17:48:34.128Z,100982.63
2023-01-10T17:50:36.197Z,100986.44
2023-01-10T17:52:37.812Z,100967.81
2023-01-10T17:54:39.500Z,100959.47
2023-01-10T17:56:41.276Z,100965.69
2023-01-10T17:58:44.385Z,100959.50
2023-01-10T18:00:47.542Z,100954.91
2023-01-10T18:02:49.553Z,100958.69
2023-01-10T18:04:51.363Z,100959.75
2023-01-10T18:06:53.211Z,100957.59
2023-01-10T18:08:54.923Z,100949.78
2023-01-10T18:11:00.429Z,100942.81
2023-01-10T18:13:03.589Z,100933.88
2023-01-10T18:15:06.367Z,100928.00
2023-01-10T18:17:12.003Z,100922.84
2023-01-10T18:19:28.694Z,100917.19
2023-01-10T18:21:30.471Z,100926.84
2023-01-10T18:23:32.383Z,100924.72
2023-01-10T18:25:38.620Z,100929.06
2023-01-10T18:27:43.139Z,100932.53
2023-01-10T18:29:52.050Z,100935.47
2023-01-10T18:31:55.785Z,100942.75
2023-01-10T18:33:58.839Z,100939.28
2023-01-10T18:36:06.637Z,100941.91
2023-01-10T18:38:08.314Z,100939.22
2023-01-10T18:40:11.040Z,100945.16
2023-01-10T18:42:13.731Z,100936.22
2023-01-10T18:44:18.389Z,100945.44
2023-01-10T18:46:22.184Z,100929.53
2023-01-10T18:48:25.816Z,100932.00
2023-01-10T18:50:28.947Z,100933.09
2023-01-10T18:52:30.609Z,100927.94
2023-01-10T18:54:32.332Z,100916.69
2023-01-10T18:56:34.066Z,100922.34
2023-01-10T18:58:37.357Z,100916.69
2023-01-10T19:00:39.026Z,100919.31
2023-01-10T19:02:46.871Z,100916.91
2023-01-10T19:04:48.660Z,100928.25
2023-01-10T19:06:54.893Z,100936.31
2023-01-10T19:08:59.748Z,100922.06
2023-01-10T19:11:13.379Z,100919.09
2023-01-10T19:13:15.953Z,100914.50
2023-01-10T19:15:33.400Z,100920.69
2023-01-10T19:17:55.671Z,100922.56
2023-01-10T19:19:57.510Z,100929.34
2023-01-10T19:22:00.619Z,100921.28
2023-01-10T19:24:07.027Z,100924.75
2023-01-10T19:26:14.605Z,100931.22
2023-01-10T19:28:16.575Z,100924.75
2023-01-10T19:30:18.384Z,100923.13
2023-01-10T19:32:23.021Z,100924.75
2023-01-10T19:34:27.180Z,100930.19
2023-01-10T19:36:29.470Z,100924.25
2023-01-10T19:38:35.494Z,100929.06
2023-01-10T19:40:37.238Z,100927.72
2023-01-10T19:42:39.700Z,100914.81
2023-01-10T19:44:44.347Z,100922.34
2023-01-10T19:46:48.812Z,100917.22
2023-01-10T19:48:50.573Z,100905.63
2023-01-10T19:50:54.506Z,100909.91
2023-01-10T19:52:56.163Z,100912.31
2023-01-10T19:54:59.447Z,100906.41
2023-01-10T19:57:18.925Z,100905.09
2023-01-10T19:59:22.449Z,100900.25
2023-01-10T20:01:30.272Z,100890.78
2023-01-10T20:03:34.069Z,100899.31
2023-01-10T20:05:38.055Z,100895.56
2023-01-10T20:07:42.623Z,100888.03
2023-01-10T20:09:58.710Z,100887.47
2023-01-10T20:12:01.847Z,100886.38
2023-01-10T20:14:04.483Z,100888.53
2023-01-10T20:16:07.267Z,100887.94
2023-01-10T20:18:08.985Z,100891.38
2023-01-10T20:20:13.323Z,100882.56
2023-01-10T20:22:15.608Z,100876.91
2023-01-10T20:24:25.974Z,100874.22
2023-01-10T20:26:31.865Z,100884.38
2023-01-10T20:28:36.154Z,100882.88
2023-01-10T20:30:37.831Z,100879.38
2023-01-10T20:32:41.148Z,100870.22
2023-01-10T20:35:04.555Z,100880.47
2023-01-10T20:37:14.120Z,100874.03
2023-01-10T20:39:15.948Z,100867.03
2023-01-10T20:41:19.468Z,100870.22
2023-01-10T20:43:25.893Z,100872.13
2023-01-10T20:45:29.004Z,100871.84
2023-01-10T20:47:30.817Z,100871.88
2023-01-10T20:49:35.530Z,100863.81
2023-01-10T20:51:40.097Z,100860.34
2023-01-10T20:53:43.207Z,100866.78
2023-01-10T20:55:53.468Z,100861.13
2023-01-10T20:58:03.739Z,100850.59
2023-01-10T21:00:06.385Z,100854.63
2023-01-10T21:02:11.117Z,100854.41
2023-01-10T21:04:19.652Z,100852.22
2023-01-10T21:06:24.088Z,100860.81
2023-01-10T21:08:30.272Z,100848.19
2023-01-10T21:10:42.886Z,100842.53
2023-01-10T21:12:44.740Z,100842.25
2023-01-10T21:14:50.083Z,100837.94
2023-01-10T21:16:59.706Z,100838.50
2023-01-10T21:19:02.939Z,100844.16
2023-01-10T21:21:08.428Z,100835.03
2023-01-10T21:23:14.857Z,100837.72
2023-01-10T21:25:20.014Z,100844.09
2023-01-10T21:27:21.796Z,100845.22
2023-01-10T21:29:25.837Z,100841.75
2023-01-10T21:31:34.039Z,100838.50
2023-01-10T21:33:38.753Z,100836.66
2023-01-10T21:35:43.281Z,100829.41
2023-01-10T21:37:44.982Z,100828.00
2023-01-10T21:39:46.598Z,100827.44
2023-01-10T21:41:54.126Z,100821.53
2023-01-10T21:43:55.841Z,100825.78
2023-01-10T21:45:58.135Z,100820.97
2023-01-10T21:47:59.784Z,100834.41
2023-01-10T21:50:01.525Z,100826.63
2023-01-10T21:52:04.920Z,100822.00
2023-01-10T21:54:06.582Z,100812.38
2023-01-10T21:56:08.613Z,100814.44
2023-01-10T21:58:13.489Z,100814.78
2023-01-10T22:00:15.990Z,100807.56
2023-01-10T22:02:19.073Z,100812.38
2023-01-10T22:04:20.980Z,100808.63
2023-01-10T22:06:22.743Z,100803.25
2023-01-10T22:08:25.826Z,100816.47
2023-01-10T22:10:27.526Z,100808.28
2023-01-10T22:12:29.136Z,100810.41
2023-01-10T22:14:30.809Z,100805.31
2023-01-10T22:16:32.547Z,100798.31
2023-01-10T22:18:34.159Z,100808.53
2023-01-10T22:20:36.013Z,100798.25
2023-01-10T22:22:37.734Z,100795.28
2023-01-10T22:24:41.991Z,100792.88
2023-01-10T22:26:43.733Z,100792.63
2023-01-10T22:28:47.932Z,100785.69
2023-01-10T22:30:49.646Z,100786.75
2023-01-10T22:32:55.230Z,100778.41
2023-01-10T22:34:56.821Z,100780.06
2023-01-10T22:36:59.188Z,100780.09
2023-01-10T22:39:00.895Z,100764.78
2023-01-10T22:41:08.745Z,100761.56
2023-01-10T22:43:10.438Z,100757.00
2023-01-10T22:45:12.086Z,100753.78
2023-01-10T22:47:13.712Z,100756.25
2023-01-10T22:49:15.364Z,100759.72
2023-01-10T22:51:18.732Z,100750.03
2023-01-10T22:53:20.331Z,100755.44
2023-01-10T22:55:22.048Z,100745.22
2023-01-10T22:57:25.217Z,100758.13
2023-01-10T22:59:27.669Z,100752.50
2023-01-10T23:01:29.300Z,100754.91
2023-01-10T23:03:30.993Z,100753.03
2023-01-10T23:05:32.670Z,100754.91
2023-01-10T23:07:34.329Z,100752.75
2023-01-10T23:09:36.080Z,100751.69
2023-01-10T23:11:37.771Z,100752.22
2023-01-10T23:13:40.786Z,100760.28
2023-01-10T23:15:42.496Z,100764.88
2023-01-10T23:17:44.108Z,100766.44
2023-01-10T23:19:45.658Z,100767.78
2023-01-10T23:21:47.412Z,100757.59
2023-01-10T23:23:49.072Z,100758.38
2023-01-10T23:25:51.417Z,100751.09
2023-01-10T23:27:53.567Z,100756.50
2023-01-10T23:29:56.560Z,100750.88
2023-01-10T23:31:58.168Z,100744.19
2023-01-10T23:33:59.964Z,100750.13
2023-01-10T23:36:01.795Z,100742.28
2023-01-10T23:38:03.456Z,100741.50
2023-01-10T23:40:06.407Z,100738.81
2023-01-10T23:42:10.160Z,100725.03
2023-01-10T23:44:12.000Z,100725.88
2023-01-10T23:46:15.210Z,100726.13
2023-01-10T23:48:20.170Z,100728.56
2023-01-10T23:50:21.778Z,100729.09
2023-01-10T23:52:23.483Z,100718.31